Time;durP1;ratioP1;P1;durP2;ratioP2;P2;SDS_P1;SDS_P2;PMS_P1;PMS_P2;Temp;Humidity;BMP_temperature;BMP_pressure;BME280_temperature;BME280_humidity;BME280_pressure;Samples;Min_cycle;Max_cycle;Signal;HPM_P1;HPM_P2
2022/05/21 00:00:12;;;;;;;1.00;0.90;;;26.70;66.30;;;;;;5075726;28;20440;-88
2022/05/21 00:02:39;;;;;;;1.57;1.00;;;26.70;66.30;;;;;;5075694;28;20432;-86
2022/05/21 00:05:07;;;;;;;1.00;0.80;;;26.70;66.20;;;;;;5075557;28;20571;-86
2022/05/21 00:07:35;;;;;;;1.07;0.93;;;26.70;66.20;;;;;;5075359;28;20436;-86
2022/05/21 00:10:02;;;;;;;1.00;0.77;;;26.70;66.20;;;;;;5075353;28;20449;-87
2022/05/21 00:12:29;;;;;;;1.20;0.90;;;26.70;66.20;;;;;;5075155;28;20457;-86
2022/05/21 00:14:57;;;;;;;1.00;0.90;;;26.70;66.20;;;;;;5075395;28;20444;-86
2022/05/21 00:17:24;;;;;;;1.10;1.00;;;26.70;66.10;;;;;;5075248;28;20437;-86
2022/05/21 00:19:50;;;;;;;1.10;1.00;;;26.70;66.50;;;;;;5075149;28;20441;-86
2022/05/21 00:22:17;;;;;;;1.00;0.80;;;26.70;66.10;;;;;;5075217;28;20463;-86
2022/05/21 00:24:46;;;;;;;1.00;0.90;;;26.70;66.10;;;;;;5074927;28;21066;-86
2022/05/21 00:27:12;;;;;;;1.10;1.00;;;26.70;66.10;;;;;;5075287;28;20448;-87
2022/05/21 00:29:39;;;;;;;1.00;0.80;;;26.70;66.00;;;;;;5075056;28;20444;-86
2022/05/21 00:32:07;;;;;;;0.93;0.80;;;26.70;66.00;;;;;;5074961;28;20429;-86
2022/05/21 00:34:34;;;;;;;1.13;1.00;;;26.70;66.00;;;;;;5074807;28;20830;-86
2022/05/21 00:37:01;;;;;;;1.10;1.00;;;26.70;66.00;;;;;;5075014;28;20537;-86
2022/05/21 00:39:28;;;;;;;1.10;0.80;;;26.70;65.90;;;;;;5074659;28;20444;-87
2022/05/21 00:42:04;;;;;;;1.00;0.90;;;26.70;66.00;;;;;;5074828;28;20889;-86
2022/05/21 00:44:31;;;;;;;1.13;1.00;;;26.70;65.90;;;;;;5074765;28;20428;-86
2022/05/21 00:46:57;;;;;;;1.10;0.90;;;26.70;65.90;;;;;;5074649;28;20443;-86
2022/05/21 00:49:28;;;;;;;1.00;0.90;;;26.70;65.90;;;;;;5074597;28;20437;-86
2022/05/21 00:51:59;;;;;;;1.10;0.90;;;26.70;65.90;;;;;;5074623;28;20441;-86
2022/05/21 00:54:31;;;;;;;1.10;0.90;;;26.70;65.90;;;;;;5074626;28;20437;-86
2022/05/21 00:57:02;;;;;;;1.07;0.90;;;26.70;65.90;;;;;;5074541;28;20445;-86
2022/05/21 00:59:47;;;;;;;1.50;0.97;;;26.70;65.80;;;;;;5074337;28;20703;-86
2022/05/21 01:02:17;;;;;;;1.00;0.80;;;26.70;65.90;;;;;;5074436;28;20564;-86
2022/05/21 01:04:45;;;;;;;1.00;0.90;;;26.70;65.80;;;;;;5074343;28;20441;-86
2022/05/21 01:07:14;;;;;;;1.00;0.90;;;26.70;65.80;;;;;;5074339;28;20437;-86
2022/05/21 01:09:43;;;;;;;1.00;0.90;;;26.70;65.80;;;;;;5074212;28;20453;-86
2022/05/21 01:12:12;;;;;;;1.10;0.80;;;26.80;65.90;;;;;;5074386;28;20464;-87
2022/05/21 01:14:39;;;;;;;1.00;0.90;;;26.70;65.80;;;;;;5074162;28;20524;-86
2022/05/21 01:17:06;;;;;;;1.30;1.03;;;26.70;65.80;;;;;;5074023;28;20445;-86
2022/05/21 01:19:32;;;;;;;1.03;0.90;;;26.70;65.70;;;;;;5073768;28;20441;-86
2022/05/21 01:21:59;;;;;;;1.00;0.80;;;26.70;66.60;;;;;;5074023;28;20437;-86
2022/05/21 01:24:27;;;;;;;1.10;0.93;;;26.70;65.70;;;;;;5073962;28;20440;-86
2022/05/21 01:26:55;;;;;;;1.00;0.80;;;26.70;65.70;;;;;;5073946;28;20494;-86
2022/05/21 01:29:25;;;;;;;1.13;1.00;;;26.70;65.70;;;;;;5073833;28;20443;-86
2022/05/21 01:31:54;;;;;;;1.10;0.90;;;26.70;65.70;;;;;;5074009;28;20449;-86
2022/05/21 01:34:22;;;;;;;1.00;0.70;;;26.70;65.70;;;;;;5073028;28;20474;-86
2022/05/21 01:36:49;;;;;;;0.97;0.80;;;26.70;65.70;;;;;;5073729;28;20441;-86
2022/05/21 01:39:16;;;;;;;1.00;0.80;;;26.70;65.70;;;;;;5073520;28;20924;-87
2022/05/21 01:41:45;;;;;;;1.97;1.20;;;26.70;65.70;;;;;;5073567;28;20464;-86
2022/05/21 01:46:56;;;;;;;1.10;0.97;;;26.70;65.70;;;;;;5073674;28;20475;-86
2022/05/21 01:49:23;;;;;;;1.20;1.00;;;26.60;65.60;;;;;;5073354;28;20798;-86
2022/05/21 01:51:50;;;;;;;1.20;1.00;;;26.60;65.60;;;;;;5073520;28;20798;-87
2022/05/21 01:54:17;;;;;;;1.03;0.93;;;26.60;65.60;;;;;;5073368;28;20435;-86
2022/05/21 01:56:45;;;;;;;0.90;0.70;;;26.60;65.50;;;;;;5073557;28;20868;-86
2022/05/21 01:59:12;;;;;;;2.20;0.90;;;26.60;65.50;;;;;;5073465;28;20440;-85
2022/05/21 02:01:39;;;;;;;1.20;1.10;;;26.60;65.50;;;;;;5073217;28;20437;-85
2022/05/21 02:04:06;;;;;;;1.20;1.10;;;26.60;65.50;;;;;;5073472;28;20448;-86
2022/05/21 02:06:33;;;;;;;1.07;0.97;;;26.60;65.50;;;;;;5073172;28;21010;-86
2022/05/21 02:09:00;;;;;;;1.00;0.70;;;26.60;65.50;;;;;;5073383;28;20449;-86
2022/05/21 02:11:27;;;;;;;1.00;0.80;;;26.60;65.50;;;;;;5073198;28;20461;-86
2022/05/21 02:13:55;;;;;;;0.90;0.70;;;26.60;65.40;;;;;;5073292;28;20442;-85
2022/05/21 02:16:22;;;;;;;1.10;0.97;;;26.60;65.40;;;;;;5073259;28;20445;-86
2022/05/21 02:18:49;;;;;;;1.00;0.90;;;26.60;65.40;;;;;;5072977;28;20466;-86
2022/05/21 02:21:17;;;;;;;1.07;0.97;;;26.60;65.40;;;;;;5073336;28;20433;-86
2022/05/21 02:23:44;;;;;;;0.97;0.80;;;26.60;65.40;;;;;;5073226;28;20456;-86
2022/05/21 02:26:11;;;;;;;1.03;0.87;;;26.60;65.40;;;;;;5073031;28;21021;-86
2022/05/21 02:28:38;;;;;;;1.10;0.90;;;26.60;65.30;;;;;;5073012;28;20441;-86
2022/05/21 02:31:06;;;;;;;0.90;0.80;;;26.60;65.40;;;;;;5073078;28;20527;-87
2022/05/21 02:33:33;;;;;;;0.93;0.77;;;26.50;65.30;;;;;;5073012;28;20441;-88
2022/05/21 02:36:00;;;;;;;1.00;0.90;;;26.60;65.40;;;;;;5072867;28;20468;-88
2022/05/21 02:41:12;;;;;;;1.20;0.93;;;26.60;65.30;;;;;;5072995;28;20435;-88
2022/05/21 02:43:40;;;;;;;1.20;0.93;;;26.60;65.40;;;;;;5072974;28;20760;-89
2022/05/21 02:46:09;;;;;;;1.10;0.90;;;26.60;65.40;;;;;;5074079;28;20480;-88
2022/05/21 02:48:36;;;;;;;1.00;0.90;;;26.60;65.30;;;;;;5076979;28;20470;-88
2022/05/21 02:51:03;;;;;;;1.30;1.00;;;26.60;65.30;;;;;;5076899;28;20444;-88
2022/05/21 02:53:30;;;;;;;1.00;0.90;;;26.60;65.30;;;;;;5076957;28;20532;-87
2022/05/21 02:56:03;;;;;;;1.00;0.90;;;26.50;65.20;;;;;;5077058;28;20797;-88
2022/05/21 02:58:29;;;;;;;1.07;0.90;;;26.60;65.30;;;;;;5076768;28;20451;-88
2022/05/21 03:00:56;;;;;;;1.00;0.90;;;26.50;65.20;;;;;;5076674;28;20437;-88
2022/05/21 03:03:25;;;;;;;1.17;1.00;;;26.60;65.20;;;;;;5076850;28;20436;-88
2022/05/21 03:05:51;;;;;;;1.00;0.83;;;26.60;65.20;;;;;;5076575;28;20648;-88
2022/05/21 03:11:03;;;;;;;1.00;0.87;;;26.50;65.10;;;;;;5076691;28;20427;-89
2022/05/21 03:13:32;;;;;;;1.00;0.90;;;26.50;65.20;;;;;;5076489;28;20447;-88
2022/05/21 03:15:58;;;;;;;1.10;0.90;;;26.50;65.20;;;;;;5076368;28;20440;-88
2022/05/21 03:18:27;;;;;;;1.10;0.80;;;26.50;65.20;;;;;;5076542;28;20444;-88
2022/05/21 03:20:53;;;;;;;1.00;0.80;;;26.50;65.10;;;;;;5076427;28;20536;-88
2022/05/21 03:23:20;;;;;;;0.90;0.80;;;26.50;65.10;;;;;;5076323;28;20441;-89
2022/05/21 03:25:47;;;;;;;1.20;0.80;;;26.50;65.20;;;;;;5076213;28;20571;-88
2022/05/21 03:28:15;;;;;;;1.00;0.70;;;26.50;65.10;;;;;;5076197;28;20433;-88
2022/05/21 03:30:42;;;;;;;1.00;0.90;;;26.50;65.10;;;;;;5076027;28;20928;-88
2022/05/21 03:33:09;;;;;;;0.97;0.77;;;26.50;65.10;;;;;;5076118;28;20444;-88
2022/05/21 03:35:38;;;;;;;1.00;0.80;;;26.50;65.10;;;;;;5075770;28;20477;-88
2022/05/21 03:38:05;;;;;;;1.00;0.87;;;26.50;65.20;;;;;;5076066;28;20441;-88
2022/05/21 03:40:33;;;;;;;1.00;0.83;;;26.50;65.10;;;;;;5076013;28;20928;-88
2022/05/21 03:43:01;;;;;;;1.10;1.00;;;26.50;65.10;;;;;;5076039;28;20472;-88
2022/05/21 03:45:28;;;;;;;1.00;0.80;;;26.50;65.10;;;;;;5075949;28;20448;-90
2022/05/21 03:47:55;;;;;;;1.10;1.00;;;26.50;65.00;;;;;;5076030;28;20445;-87
2022/05/21 03:50:24;;;;;;;1.17;1.07;;;26.50;65.10;;;;;;5075855;28;20445;-88
2022/05/21 03:52:52;;;;;;;1.13;1.03;;;26.50;65.00;;;;;;5075814;28;20468;-88
2022/05/21 03:55:20;;;;;;;1.10;1.00;;;26.50;65.00;;;;;;5075774;28;20797;-88
2022/05/21 03:57:46;;;;;;;1.10;1.00;;;26.50;65.00;;;;;;5075224;28;20439;-88
2022/05/21 04:00:17;;;;;;;1.00;0.87;;;26.50;65.00;;;;;;5075659;28;21027;-88
2022/05/21 04:02:44;;;;;;;1.00;0.83;;;26.50;64.90;;;;;;5075867;28;20449;-89
2022/05/21 04:05:13;;;;;;;1.00;0.90;;;26.50;64.90;;;;;;5075812;28;20433;-88
2022/05/21 04:07:40;;;;;;;1.30;0.80;;;26.50;64.90;;;;;;5075527;28;20499;-88
2022/05/21 04:10:11;;;;;;;2.47;1.10;;;26.50;65.00;;;;;;5075563;28;20800;-88
2022/05/21 04:12:38;;;;;;;1.20;1.10;;;26.50;64.90;;;;;;5075497;28;20449;-88
2022/05/21 04:15:06;;;;;;;1.00;0.90;;;26.50;64.90;;;;;;5075546;28;20466;-88
2022/05/21 04:17:33;;;;;;;1.20;0.90;;;26.50;64.90;;;;;;5075277;28;20519;-88
2022/05/21 04:20:00;;;;;;;1.00;0.90;;;26.50;64.90;;;;;;5075389;28;20452;-88
2022/05/21 04:22:27;;;;;;;1.00;0.80;;;26.50;64.90;;;;;;5075297;28;20445;-88
2022/05/21 04:24:53;;;;;;;1.20;1.10;;;26.50;64.90;;;;;;5075148;28;20471;-87
2022/05/21 04:27:21;;;;;;;1.00;0.90;;;26.50;64.90;;;;;;5075115;28;21017;-88
2022/05/21 04:29:49;;;;;;;1.17;1.07;;;26.50;64.90;;;;;;5075064;28;20448;-88
2022/05/21 04:32:15;;;;;;;1.27;1.10;;;26.50;64.90;;;;;;5075128;28;20443;-88
2022/05/21 04:34:42;;;;;;;1.00;0.90;;;26.50;64.90;;;;;;5075027;28;20837;-88
2022/05/21 04:37:09;;;;;;;1.00;0.90;;;26.50;64.90;;;;;;5074745;28;20436;-88
2022/05/21 04:39:36;;;;;;;1.03;0.90;;;26.50;64.80;;;;;;5074833;28;20507;-88
2022/05/21 04:42:04;;;;;;;1.07;0.97;;;26.50;64.90;;;;;;5074724;28;20453;-87
2022/05/21 04:44:34;;;;;;;1.00;0.90;;;26.50;64.80;;;;;;5074779;28;20429;-88
2022/05/21 04:47:02;;;;;;;0.97;0.80;;;26.50;64.80;;;;;;5074631;28;20480;-88
2022/05/21 04:49:30;;;;;;;1.10;1.00;;;26.50;64.80;;;;;;5074651;28;20441;-88
2022/05/21 04:51:56;;;;;;;1.20;1.10;;;26.50;64.80;;;;;;5074717;28;20437;-88
2022/05/21 04:54:23;;;;;;;1.10;1.00;;;26.50;64.80;;;;;;5074614;28;20797;-88
2022/05/21 04:56:50;;;;;;;1.13;0.90;;;26.50;64.80;;;;;;5074645;28;20484;-88
2022/05/21 04:59:17;;;;;;;1.00;0.90;;;26.50;64.80;;;;;;5074437;28;20439;-87
2022/05/21 05:01:45;;;;;;;1.30;1.20;;;26.50;64.90;;;;;;5074608;28;20453;-88
2022/05/21 05:04:12;;;;;;;1.10;1.00;;;26.50;64.80;;;;;;5074401;28;20515;-88
2022/05/21 05:06:39;;;;;;;1.10;1.00;;;26.50;64.90;;;;;;5074237;28;20492;-88
2022/05/21 05:09:07;;;;;;;1.07;0.90;;;26.50;64.80;;;;;;5073598;28;20444;-87
2022/05/21 05:11:34;;;;;;;1.10;1.00;;;26.50;64.80;;;;;;5074016;28;21005;-88
2022/05/21 05:14:00;;;;;;;1.10;1.00;;;26.50;64.80;;;;;;5074190;28;20531;-89
2022/05/21 05:16:27;;;;;;;1.33;1.10;;;26.50;64.70;;;;;;5074087;28;20463;-88
2022/05/21 05:18:55;;;;;;;1.10;1.00;;;26.50;64.70;;;;;;5074000;28;20437;-88
2022/05/21 05:21:22;;;;;;;1.30;0.90;;;26.50;64.70;;;;;;5074083;28;20447;-86
2022/05/21 05:23:49;;;;;;;1.10;0.93;;;26.50;64.70;;;;;;5073966;28;20793;-86
2022/05/21 05:26:16;;;;;;;1.10;1.00;;;26.50;64.80;;;;;;5073853;28;20511;-88
2022/05/21 05:28:43;;;;;;;1.00;0.90;;;26.40;64.70;;;;;;5073803;28;20441;-86
2022/05/21 05:31:09;;;;;;;1.13;1.03;;;26.50;64.70;;;;;;5073970;28;20443;-86
2022/05/21 05:33:36;;;;;;;1.13;1.03;;;26.40;64.70;;;;;;5073997;28;21001;-86
2022/05/21 05:36:05;;;;;;;1.47;1.00;;;26.50;64.70;;;;;;5073469;28;20472;-85
2022/05/21 05:38:32;;;;;;;1.23;1.13;;;26.50;64.60;;;;;;5073636;28;20441;-86
2022/05/21 05:40:59;;;;;;;1.40;1.30;;;26.50;64.70;;;;;;5073640;28;20818;-86
2022/05/21 05:43:26;;;;;;;1.00;0.90;;;26.50;64.70;;;;;;5073554;28;20441;-85
2022/05/21 05:45:58;;;;;;;1.17;1.07;;;26.50;65.50;;;;;;5073694;28;20514;-86
2022/05/21 05:48:25;;;;;;;1.07;0.97;;;26.50;64.60;;;;;;5073600;28;20444;-86
2022/05/21 05:50:52;;;;;;;1.37;1.20;;;26.50;64.70;;;;;;5073706;28;20451;-86
2022/05/21 05:53:20;;;;;;;1.00;0.90;;;26.40;64.60;;;;;;5073563;28;20954;-86
2022/05/21 05:55:48;;;;;;;1.23;1.13;;;26.50;64.60;;;;;;5073399;28;20465;-85
2022/05/21 06:00:59;;;;;;;1.07;0.93;;;26.50;64.60;;;;;;5073596;28;20478;-86
2022/05/21 06:03:26;;;;;;;1.30;1.20;;;26.40;64.50;;;;;;5073429;28;20789;-86
2022/05/21 06:05:53;;;;;;;1.10;0.97;;;26.40;64.50;;;;;;5073399;28;20441;-85
2022/05/21 06:08:21;;;;;;;1.30;1.20;;;26.40;64.60;;;;;;5073122;28;20491;-86
2022/05/21 06:10:49;;;;;;;2.47;1.50;;;26.50;64.60;;;;;;5073120;28;20959;-86
2022/05/21 06:13:16;;;;;;;1.17;1.07;;;26.50;64.60;;;;;;5073400;28;20951;-85
2022/05/21 06:15:43;;;;;;;1.47;1.10;;;26.50;64.60;;;;;;5073143;28;20444;-86
2022/05/21 06:18:12;;;;;;;1.30;1.20;;;26.50;64.50;;;;;;5073148;28;20437;-85
2022/05/21 06:20:39;;;;;;;1.30;1.20;;;26.50;64.50;;;;;;5073077;28;20448;-86
2022/05/21 06:23:06;;;;;;;1.20;1.10;;;26.50;64.50;;;;;;5073241;28;20520;-85
2022/05/21 06:25:35;;;;;;;1.27;1.17;;;26.40;64.40;;;;;;5073131;28;20473;-86
2022/05/21 06:28:03;;;;;;;1.20;1.10;;;26.50;64.50;;;;;;5072921;28;20558;-86
2022/05/21 06:30:31;;;;;;;1.17;1.00;;;26.50;64.50;;;;;;5073202;28;20873;-86
2022/05/21 06:32:59;;;;;;;1.40;1.30;;;26.40;64.40;;;;;;5073131;28;20452;-86
2022/05/21 06:35:27;;;;;;;1.20;1.10;;;26.50;64.50;;;;;;5073050;28;20477;-88
2022/05/21 06:37:54;;;;;;;2.07;1.00;;;26.40;64.40;;;;;;5073073;28;20440;-89
2022/05/21 06:40:21;;;;;;;1.10;1.00;;;26.40;64.40;;;;;;5073069;28;20566;-86
2022/05/21 06:42:49;;;;;;;1.10;1.00;;;26.40;64.40;;;;;;5073067;28;20463;-86
2022/05/21 06:45:17;;;;;;;1.50;1.40;;;26.50;64.50;;;;;;5072967;28;20534;-86
2022/05/21 06:47:44;;;;;;;1.20;1.10;;;26.40;64.40;;;;;;5072861;28;20480;-86
2022/05/21 06:50:11;;;;;;;1.17;1.07;;;26.40;64.30;;;;;;5073023;28;20441;-88
2022/05/21 06:52:39;;;;;;;1.17;1.07;;;26.40;64.40;;;;;;5072892;28;20445;-86
2022/05/21 06:55:07;;;;;;;1.00;0.90;;;26.50;64.40;;;;;;5072817;28;20445;-87
2022/05/21 06:57:34;;;;;;;1.33;1.23;;;26.40;64.30;;;;;;5072700;28;20451;-86
2022/05/21 07:00:02;;;;;;;1.60;1.03;;;26.40;64.40;;;;;;5072778;28;20440;-86
2022/05/21 07:02:29;;;;;;;1.30;1.00;;;26.40;64.30;;;;;;5072728;28;20480;-86
2022/05/21 07:07:44;;;;;;;1.30;1.20;;;26.40;64.40;;;;;;5072823;28;20626;-86
2022/05/21 07:10:18;;;;;;;1.10;1.00;;;26.40;64.40;;;;;;5072730;28;20445;-86
2022/05/21 07:12:45;;;;;;;1.47;1.37;;;26.40;64.30;;;;;;5072814;28;20460;-86
2022/05/21 07:15:14;;;;;;;1.27;1.17;;;26.40;64.30;;;;;;5072803;28;20443;-86
2022/05/21 07:17:41;;;;;;;2.10;1.27;;;26.40;64.30;;;;;;5072731;28;20433;-87
2022/05/21 07:20:12;;;;;;;1.17;1.07;;;26.40;64.30;;;;;;5072747;28;20443;-86
2022/05/21 07:22:41;;;;;;;1.30;1.20;;;26.40;64.30;;;;;;5072573;28;20469;-87
2022/05/21 07:25:12;;;;;;;1.43;1.30;;;26.40;64.30;;;;;;5072721;28;20460;-87
2022/05/21 07:27:39;;;;;;;1.20;1.10;;;26.40;64.30;;;;;;5072298;28;20492;-87
2022/05/21 07:30:07;;;;;;;1.10;1.00;;;26.40;64.30;;;;;;5072357;28;20441;-87
2022/05/21 07:32:35;;;;;;;1.37;1.27;;;26.40;64.20;;;;;;5074385;28;20441;-88
2022/05/21 07:35:05;;;;;;;1.30;1.20;;;26.40;64.20;;;;;;5075912;28;20468;-86
2022/05/21 07:37:32;;;;;;;1.30;1.20;;;26.40;64.30;;;;;;5076147;28;20782;-87
2022/05/21 07:39:59;;;;;;;1.40;1.27;;;26.40;64.30;;;;;;5075964;28;20441;-86
2022/05/21 07:42:26;;;;;;;2.07;1.60;;;26.40;64.30;;;;;;5075917;28;20518;-86
2022/05/21 07:44:53;;;;;;;1.77;1.67;;;26.40;64.30;;;;;;5076082;28;20444;-86
2022/05/21 07:47:22;;;;;;;1.50;1.13;;;26.40;64.30;;;;;;5075622;28;20506;-86
2022/05/21 07:49:51;;;;;;;1.40;1.30;;;26.40;64.30;;;;;;5075926;28;20776;-87
2022/05/21 07:52:18;;;;;;;1.73;1.40;;;26.40;64.30;;;;;;5075806;28;20448;-86
2022/05/21 07:54:45;;;;;;;1.87;1.67;;;26.40;64.30;;;;;;5075921;28;20437;-89
2022/05/21 07:57:12;;;;;;;1.47;1.27;;;26.40;64.30;;;;;;5075897;28;20445;-86
2022/05/21 07:59:39;;;;;;;1.77;1.63;;;26.40;64.20;;;;;;5075795;28;20456;-86
2022/05/21 08:02:08;;;;;;;1.20;1.10;;;26.40;64.30;;;;;;5075718;28;20482;-86
2022/05/21 08:04:36;;;;;;;1.30;1.20;;;26.40;64.30;;;;;;5075921;28;20425;-86
2022/05/21 08:07:04;;;;;;;1.40;1.30;;;26.40;64.30;;;;;;5075534;28;20476;-86
2022/05/21 08:09:32;;;;;;;1.20;1.10;;;26.40;65.20;;;;;;5075501;28;20433;-86
2022/05/21 08:11:59;;;;;;;1.30;1.20;;;26.40;64.30;;;;;;5075624;28;20514;-87
2022/05/21 08:14:25;;;;;;;1.37;1.27;;;26.40;64.30;;;;;;5075284;28;20448;-86
2022/05/21 08:16:52;;;;;;;1.67;1.40;;;26.40;64.30;;;;;;5075245;28;20471;-87
2022/05/21 08:19:19;;;;;;;1.30;1.20;;;26.40;64.30;;;;;;5075188;28;20449;-89
2022/05/21 08:21:46;;;;;;;1.57;1.47;;;26.40;64.30;;;;;;5075308;28;20444;-87
2022/05/21 08:26:59;;;;;;;1.20;1.10;;;26.40;64.40;;;;;;5075344;28;20462;-87
2022/05/21 08:29:27;;;;;;;1.73;1.63;;;26.30;64.40;;;;;;5075181;28;20436;-86
2022/05/21 08:31:54;;;;;;;1.50;1.40;;;26.30;64.30;;;;;;5075047;28;20437;-87
2022/05/21 08:34:21;;;;;;;1.60;1.50;;;26.30;64.30;;;;;;5074810;28;20472;-86
2022/05/21 08:36:49;;;;;;;1.87;1.13;;;26.40;64.40;;;;;;5074944;28;20463;-86
2022/05/21 08:39:18;;;;;;;1.83;1.43;;;26.40;64.40;;;;;;5074991;28;20444;-86
2022/05/21 08:41:47;;;;;;;1.53;1.43;;;26.40;64.30;;;;;;5074902;28;20461;-86
2022/05/21 08:44:20;;;;;;;1.70;1.40;;;26.40;64.40;;;;;;5073896;28;20505;-87
2022/05/21 08:46:59;;;;;;;1.40;1.30;;;26.40;64.30;;;;;;5074982;28;20441;-86
2022/05/21 08:49:31;;;;;;;1.50;1.40;;;26.40;64.30;;;;;;5074742;28;20441;-86
2022/05/21 08:52:02;;;;;;;1.30;1.20;;;26.40;65.20;;;;;;5074697;28;20448;-86
2022/05/21 08:54:34;;;;;;;1.40;1.30;;;26.40;64.30;;;;;;5074837;28;20945;-86
2022/05/21 08:57:03;;;;;;;1.50;1.40;;;26.40;64.30;;;;;;5074544;28;20448;-87
2022/05/21 08:59:36;;;;;;;1.40;1.30;;;26.40;64.30;;;;;;5074540;28;20564;-86
2022/05/21 09:02:04;;;;;;;1.77;1.50;;;26.30;64.20;;;;;;5074635;28;20916;-87
2022/05/21 09:04:31;;;;;;;1.50;1.40;;;26.40;64.30;;;;;;5074451;28;20445;-86
2022/05/21 09:07:02;;;;;;;1.50;1.13;;;26.30;64.20;;;;;;5074324;28;20437;-87
2022/05/21 09:09:43;;;;;;;1.50;1.40;;;26.40;64.30;;;;;;5074429;28;20916;-87
2022/05/21 09:12:18;;;;;;;1.57;1.47;;;26.40;64.30;;;;;;5074212;28;20478;-87
2022/05/21 09:14:47;;;;;;;1.53;1.43;;;26.40;64.30;;;;;;5074253;28;20439;-89
2022/05/21 09:17:15;;;;;;;1.57;1.33;;;26.40;64.30;;;;;;5074207;28;20441;-88
2022/05/21 09:19:46;;;;;;;1.60;1.50;;;26.40;64.30;;;;;;5074005;28;20441;-87
2022/05/21 09:22:16;;;;;;;2.13;1.80;;;26.40;64.30;;;;;;5074296;28;20837;-87
2022/05/21 09:24:46;;;;;;;1.53;1.43;;;26.40;64.20;;;;;;5074261;28;20447;-86
2022/05/21 09:27:27;;;;;;;1.97;1.87;;;26.50;64.00;;;;;;5074045;28;20440;-86
2022/05/21 09:29:55;;;;;;;1.50;1.40;;;26.50;63.80;;;;;;5074456;28;20437;-86
2022/05/21 09:32:30;;;;;;;1.57;1.47;;;26.50;63.90;;;;;;5074183;28;20436;-86
2022/05/21 09:35:04;;;;;;;2.23;2.13;;;26.50;63.90;;;;;;5073695;28;20475;-86
2022/05/21 09:37:31;;;;;;;1.80;1.70;;;26.60;63.90;;;;;;5074833;28;20440;-87
2022/05/21 09:40:00;;;;;;;1.40;1.30;;;26.60;63.80;;;;;;5073621;28;20447;-87
2022/05/21 09:45:27;;;;;;;1.60;1.50;;;26.70;63.60;;;;;;5076638;28;20511;-88
2022/05/21 09:48:13;;;;;;;1.70;1.60;;;26.70;63.70;;;;;;5073408;28;20480;-88
2022/05/21 09:50:44;;;;;;;1.60;1.50;;;26.70;63.70;;;;;;5073884;28;20445;-88
2022/05/21 09:53:21;;;;;;;2.10;1.90;;;26.70;63.70;;;;;;5073605;28;20467;-88
2022/05/21 09:56:00;;;;;;;1.70;1.60;;;26.70;63.70;;;;;;5073347;28;20451;-89
2022/05/21 09:58:27;;;;;;;1.70;1.60;;;26.80;63.60;;;;;;5073608;28;20432;-88
2022/05/21 10:00:57;;;;;;;1.70;1.60;;;26.80;63.60;;;;;;5073381;28;20923;-87
2022/05/21 10:03:41;;;;;;;1.80;1.70;;;26.80;63.60;;;;;;5073911;28;20794;-88
2022/05/21 10:06:19;;;;;;;1.50;1.40;;;26.80;63.60;;;;;;5073594;28;20436;-88
2022/05/21 10:11:41;;;;;;;2.17;1.97;;;26.80;63.60;;;;;;5073414;28;20444;-87
2022/05/21 10:14:17;;;;;;;1.70;1.60;;;26.90;63.70;;;;;;5073577;28;20448;-90
2022/05/21 10:16:48;;;;;;;1.80;1.70;;;26.80;63.60;;;;;;5073299;28;20440;-88
2022/05/21 10:19:22;;;;;;;1.87;1.77;;;26.90;63.60;;;;;;5073590;28;20436;-88
2022/05/21 10:21:59;;;;;;;2.00;1.90;;;26.80;63.50;;;;;;5073514;28;20773;-88
2022/05/21 10:24:43;;;;;;;2.17;1.80;;;26.90;63.60;;;;;;5072959;28;20441;-88
2022/05/21 10:27:23;;;;;;;1.90;1.80;;;26.90;63.40;;;;;;5072543;28;20805;-89
2022/05/21 10:30:05;;;;;;;2.00;1.90;;;26.90;63.50;;;;;;5072807;28;20452;-87
2022/05/21 10:33:01;;;;;;;1.80;1.70;;;26.90;63.40;;;;;;5072966;28;20441;-87
2022/05/21 10:35:41;;;;;;;1.87;1.77;;;26.90;63.50;;;;;;5072905;28;20533;-86
2022/05/21 10:38:28;;;;;;;2.20;2.00;;;26.80;63.50;;;;;;5072678;28;20832;-86
2022/05/21 10:40:59;;;;;;;2.13;2.03;;;26.80;63.50;;;;;;5073100;28;20995;-87
2022/05/21 10:43:43;;;;;;;1.77;1.67;;;26.80;63.50;;;;;;5073312;28;20444;-86
2022/05/21 10:46:25;;;;;;;2.70;2.23;;;26.80;63.30;;;;;;5073300;28;20811;-86
2022/05/21 10:49:31;;;;;;;2.77;2.13;;;26.80;63.20;;;;;;5072957;28;20507;-86
2022/05/21 10:52:02;;;;;;;1.97;1.87;;;26.80;63.10;;;;;;5044234;28;20441;-87
2022/05/21 10:54:38;;;;;;;3.00;1.90;;;26.70;63.30;;;;;;5073000;28;20441;-87
2022/05/21 10:57:20;;;;;;;1.97;1.83;;;26.70;63.30;;;;;;5072916;28;20443;-85
2022/05/21 11:00:07;;;;;;;2.30;1.90;;;26.70;63.20;;;;;;5072898;28;20448;-89
2022/05/21 11:02:58;;;;;;;2.70;2.00;;;26.70;63.20;;;;;;5079654;28;20451;-85
2022/05/21 11:06:01;;;;;;;4.03;1.77;;;26.70;63.30;;;;;;5081776;28;20448;-86
2022/05/21 11:08:35;;;;;;;2.00;1.80;;;26.70;63.20;;;;;;5076457;28;21029;-86
2022/05/21 11:11:09;;;;;;;2.23;1.93;;;26.70;63.30;;;;;;5076845;28;20463;-86
2022/05/21 11:13:43;;;;;;;2.00;1.90;;;26.70;63.30;;;;;;5076737;28;20928;-87
2022/05/21 11:16:15;;;;;;;2.23;1.80;;;26.60;63.20;;;;;;5076455;28;20935;-86
2022/05/21 11:18:45;;;;;;;2.13;1.80;;;26.60;63.20;;;;;;5076717;28;20455;-89
2022/05/21 11:21:16;;;;;;;2.03;1.80;;;26.60;64.00;;;;;;5076563;28;20451;-86
2022/05/21 11:23:54;;;;;;;1.93;1.83;;;26.60;63.20;;;;;;5076254;28;20535;-87
2022/05/21 11:26:30;;;;;;;2.17;1.67;;;26.60;63.20;;;;;;5076314;28;20444;-86
2022/05/21 11:29:02;;;;;;;2.30;2.20;;;26.60;63.20;;;;;;5076318;28;20480;-86
2022/05/21 11:39:53;;;;;;;1.90;1.80;;;26.60;63.30;;;;;;5073366;28;20485;-86
2022/05/21 11:42:23;;;;;;;1.70;1.53;;;26.60;63.30;;;;;;5076413;28;20462;-82
2022/05/21 11:44:58;;;;;;;2.03;1.80;;;26.70;63.70;;;;;;5076098;28;20433;-80
2022/05/21 11:47:54;;;;;;;1.80;1.70;;;26.70;63.90;;;;;;5076482;28;20440;-86
2022/05/21 11:50:30;;;;;;;1.93;1.83;;;26.70;63.80;;;;;;5076262;28;20437;-80
2022/05/21 11:53:08;;;;;;;1.93;1.83;;;26.70;64.00;;;;;;5076106;28;20536;-81
2022/05/21 11:56:01;;;;;;;1.77;1.67;;;26.70;64.80;;;;;;5075976;28;20517;-80
2022/05/21 11:59:25;;;;;;;1.73;1.63;;;26.70;63.90;;;;;;5063279;28;20832;-81
2022/05/21 12:02:18;;;;;;;1.93;1.83;;;26.80;63.90;;;;;;5075904;28;20453;-91
2022/05/21 12:04:52;;;;;;;2.00;1.90;;;26.80;64.00;;;;;;5075942;28;20519;-80
2022/05/21 12:07:51;;;;;;;1.70;1.60;;;26.70;63.90;;;;;;5075828;28;20441;-82
2022/05/21 12:10:23;;;;;;;1.93;1.83;;;26.80;63.90;;;;;;5075732;28;20860;-90
2022/05/21 12:13:03;;;;;;;2.17;1.90;;;26.80;64.00;;;;;;5075697;28;20971;-81
2022/05/21 12:15:37;;;;;;;1.73;1.63;;;26.80;63.80;;;;;;5075551;28;20440;-80
2022/05/21 12:18:09;;;;;;;2.23;1.80;;;26.80;63.90;;;;;;5075374;28;20923;-90
2022/05/21 12:20:44;;;;;;;1.77;1.67;;;26.80;63.80;;;;;;5075508;28;20932;-80
2022/05/21 12:23:15;;;;;;;2.07;1.77;;;26.80;63.80;;;;;;5075551;28;20459;-84
2022/05/21 12:26:00;;;;;;;1.63;1.53;;;26.80;63.80;;;;;;5075454;28;20448;-81
2022/05/21 12:28:57;;;;;;;1.80;1.70;;;26.80;63.70;;;;;;5075391;28;20469;-83
2022/05/21 12:31:26;;;;;;;2.00;1.90;;;26.80;63.70;;;;;;5055645;28;20441;-80
2022/05/21 12:34:23;;;;;;;1.90;1.80;;;26.80;63.90;;;;;;5076406;28;20443;-80
2022/05/21 12:37:00;;;;;;;2.83;2.40;;;26.90;63.80;;;;;;5075421;28;20443;-83
2022/05/21 12:39:32;;;;;;;2.10;1.93;;;26.80;63.80;;;;;;5075336;28;20518;-80
2022/05/21 12:42:07;;;;;;;2.70;1.87;;;26.80;63.80;;;;;;5075168;28;20518;-83
2022/05/21 12:44:40;;;;;;;2.00;1.80;;;26.80;63.80;;;;;;5075119;28;20445;-86
2022/05/21 12:47:10;;;;;;;1.80;1.70;;;26.90;63.80;;;;;;5075163;28;20433;-80
2022/05/21 12:49:48;;;;;;;2.10;1.70;;;26.90;63.80;;;;;;5074923;28;20579;-85
2022/05/21 12:52:26;;;;;;;1.60;1.50;;;26.90;63.80;;;;;;5074933;28;20768;-83
2022/05/21 12:55:15;;;;;;;2.83;1.70;;;26.90;63.70;;;;;;5075284;28;20526;-80
2022/05/21 12:57:42;;;;;;;3.53;2.03;;;27.00;63.70;;;;;;5080500;28;20445;-80
2022/05/21 13:00:10;;;;;;;1.90;1.80;;;26.90;63.80;;;;;;5081294;28;20433;-80
2022/05/21 13:02:42;;;;;;;1.80;1.43;;;26.90;64.60;;;;;;5080385;28;20433;-80
2022/05/21 13:05:17;;;;;;;1.70;1.60;;;27.00;63.70;;;;;;5074581;28;20437;-80
2022/05/21 13:07:44;;;;;;;1.93;1.50;;;27.00;63.70;;;;;;5074743;28;20440;-80
2022/05/21 13:10:21;;;;;;;2.33;1.97;;;27.00;63.70;;;;;;5074662;28;20579;-82
2022/05/21 13:12:50;;;;;;;1.90;1.67;;;27.00;63.70;;;;;;5074452;28;20474;-85
2022/05/21 13:15:22;;;;;;;2.00;1.90;;;27.00;64.60;;;;;;5074649;28;20457;-80
2022/05/21 13:17:58;;;;;;;1.80;1.70;;;27.00;63.70;;;;;;5074208;28;20815;-80
2022/05/21 13:20:33;;;;;;;1.80;1.70;;;26.90;63.60;;;;;;5074414;28;20467;-81
2022/05/21 13:23:26;;;;;;;1.77;1.67;;;27.00;63.80;;;;;;5074306;28;20433;-80
2022/05/21 13:25:54;;;;;;;1.80;1.70;;;27.00;63.60;;;;;;5069692;28;20441;-80
2022/05/21 13:28:24;;;;;;;2.30;1.60;;;26.90;63.70;;;;;;5073870;28;20777;-80
2022/05/21 13:30:52;;;;;;;1.90;1.70;;;26.90;63.70;;;;;;5073249;28;20448;-80
2022/05/21 13:33:33;;;;;;;2.37;1.67;;;27.00;63.80;;;;;;5073895;28;20436;-80
2022/05/21 13:36:04;;;;;;;1.50;1.40;;;27.00;63.70;;;;;;5073595;28;21018;-80